Time;durP1;ratioP1;P1;durP2;ratioP2;P2;SDS_P1;SDS_P2;PMS_P1;PMS_P2;Temp;Humidity;BMP_temperature;BMP_pressure;BME280_temperature;BME280_humidity;BME280_pressure;Samples;Min_cycle;Max_cycle;Signal;HPM_P1;HPM_P2
2023/01/20 00:01:11;;;;;;;0.57;0.35;;;;;;;18.24;49.58;99426.94;7390783;19;20014;-82
2023/01/20 00:03:41;;;;;;;12.00;1.75;;;;;;;18.52;50.23;99430.03;7390742;19;20479;-82
2023/01/20 00:06:08;;;;;;;1.85;1.40;;;;;;;15.83;52.50;99438.03;7392163;19;20018;-82
2023/01/20 00:08:34;;;;;;;0.10;0.10;;;;;;;16.53;52.90;99433.63;7389658;19;20010;-82
2023/01/20 00:11:05;;;;;;;8.30;1.17;;;;;;;16.60;52.76;99431.00;7388672;19;20013;-82
2023/01/20 00:13:33;;;;;;;0.63;0.20;;;;;;;16.90;53.04;99436.53;7390208;19;20041;-82
2023/01/20 00:16:02;;;;;;;0.13;0.13;;;;;;;17.76;51.70;99440.00;7390690;19;20022;-82
2023/01/20 00:18:29;;;;;;;10.05;0.80;;;;;;;19.11;49.95;99437.09;7387191;19;20044;-82
2023/01/20 00:20:56;;;;;;;0.10;0.10;;;;;;;20.06;48.04;99437.28;7390324;19;20620;-82
2023/01/20 00:23:22;;;;;;;0.25;0.25;;;;;;;20.87;46.21;99442.66;7389419;19;20033;-82
2023/01/20 00:25:48;;;;;;;0.10;0.03;;;;;;;20.90;46.04;99442.28;7391067;19;20374;-81
2023/01/20 00:28:15;;;;;;;0.20;0.13;;;;;;;20.18;46.39;99444.16;7390732;19;20026;-82
2023/01/20 00:30:41;;;;;;;0.10;0.10;;;;;;;18.67;48.89;99453.59;7388397;19;20014;-82
2023/01/20 00:33:08;;;;;;;0.40;0.40;;;;;;;19.65;47.08;99457.78;7389046;19;20019;-82
2023/01/20 00:35:36;;;;;;;0.30;0.30;;;;;;;19.84;47.07;99454.78;7388110;19;20046;-82
2023/01/20 00:38:02;;;;;;;0.10;0.10;;;;;;;20.18;46.11;99454.75;7389114;19;20370;-81
2023/01/20 00:40:28;;;;;;;0.28;0.25;;;;;;;19.86;46.71;99468.38;7389769;19;20027;-82
2023/01/20 00:43:12;;;;;;;0.30;0.10;;;;;;;19.35;47.30;99465.88;7384420;19;20030;-82
2023/01/20 00:45:39;;;;;;;3.45;0.85;;;;;;;19.80;46.74;99476.19;7389411;19;20018;-82
2023/01/20 00:48:06;;;;;;;1.38;0.90;;;;;;;19.56;46.92;99469.53;7387668;19;20026;-81
2023/01/20 00:50:32;;;;;;;0.40;0.30;;;;;;;19.69;46.90;99463.09;7386750;19;20022;-81
2023/01/20 00:52:58;;;;;;;0.65;0.47;;;;;;;19.50;47.15;99462.50;7387248;19;20014;-82
2023/01/20 00:55:24;;;;;;;0.45;0.35;;;;;;;18.93;47.33;99464.16;7390072;19;20043;-82
2023/01/20 00:57:50;;;;;;;0.68;0.68;;;;;;;19.45;47.23;99464.13;7386165;19;20026;-82
2023/01/20 01:00:17;;;;;;;0.25;0.25;;;;;;;20.26;46.55;99461.25;7388510;19;20439;-81
2023/01/20 01:02:44;;;;;;;4.05;0.90;;;;;;;16.05;51.67;99468.00;7387909;19;20022;-82
2023/01/20 01:05:10;;;;;;;0.22;0.20;;;;;;;13.35;59.10;99475.69;7386059;19;20025;-81
2023/01/20 01:07:36;;;;;;;2.72;0.63;;;;;;;12.26;66.85;99480.16;7388978;19;20354;-81
2023/01/20 01:10:03;;;;;;;0.38;0.22;;;;;;;11.67;73.17;99480.66;7389135;19;20018;-81
2023/01/20 01:12:29;;;;;;;1.02;0.43;;;;;;;11.62;80.13;99474.97;7388903;19;20022;-81
2023/01/20 01:14:55;;;;;;;0.35;0.25;;;;;;;12.14;81.77;99490.44;7391050;19;20043;-81
2023/01/20 01:17:22;;;;;;;0.10;0.10;;;;;;;11.56;87.59;99490.88;7386851;19;20014;-81
2023/01/20 01:19:51;;;;;;;0.10;0.10;;;;;;;14.23;80.27;99483.44;7388337;19;20579;-81
2023/01/20 01:22:18;;;;;;;2.13;0.28;;;;;;;13.63;73.29;99485.69;7388506;19;20441;-81
2023/01/20 01:24:45;;;;;;;0.10;0.10;;;;;;;15.22;70.53;99492.97;7384180;19;20021;-80
2023/01/20 01:27:11;;;;;;;0.22;0.22;;;;;;;13.18;75.58;99497.22;7387329;19;20090;-81
2023/01/20 01:29:37;;;;;;;0.32;0.32;;;;;;;14.85;73.12;99502.53;7388597;19;20046;-81
2023/01/20 01:32:04;;;;;;;0.10;0.10;;;;;;;18.46;60.94;99494.25;7387761;19;20010;-80
2023/01/20 01:34:30;;;;;;;0.10;0.10;;;;;;;19.09;55.68;99505.41;7387936;19;20039;-80
2023/01/20 01:36:56;;;;;;;0.43;0.43;;;;;;;19.52;53.84;99503.00;7390219;19;20384;-81
2023/01/20 01:39:23;;;;;;;1.05;0.85;;;;;;;19.24;52.97;99504.84;7385689;19;20033;-80
2023/01/20 01:41:49;;;;;;;0.20;0.17;;;;;;;20.45;51.18;99509.88;7386167;19;20014;-80
2023/01/20 01:44:16;;;;;;;1.17;0.90;;;;;;;20.96;49.64;99493.13;7388223;19;20032;-80
2023/01/20 01:46:42;;;;;;;0.10;0.10;;;;;;;20.87;48.64;99508.53;7389174;19;20018;-80
2023/01/20 01:49:31;;;;;;;0.10;0.10;;;;;;;20.57;48.57;99508.28;7386630;19;20060;-80
2023/01/20 01:52:00;;;;;;;0.10;0.10;;;;;;;20.65;48.26;99509.13;7387431;19;20491;-80
2023/01/20 01:54:31;;;;;;;0.10;0.10;;;;;;;20.45;48.32;99526.09;7385541;19;20031;-80
2023/01/20 01:56:59;;;;;;;1.08;0.45;;;;;;;19.35;49.50;99527.25;7390261;19;20485;-80
2023/01/20 01:59:26;;;;;;;1.85;1.00;;;;;;;20.33;48.20;99536.94;7385761;19;20029;-80
2023/01/20 02:01:52;;;;;;;0.45;0.38;;;;;;;20.41;48.38;99534.91;7385914;19;20018;-79
2023/01/20 02:04:23;;;;;;;0.10;0.10;;;;;;;20.56;47.42;99540.72;7384211;19;20100;-79
2023/01/20 02:06:53;;;;;;;0.10;0.10;;;;;;;21.02;47.28;99536.94;7390393;19;21465;-81
2023/01/20 02:09:21;;;;;;;0.20;0.20;;;;;;;20.69;46.94;99535.00;7387605;19;20015;-80
2023/01/20 02:11:52;;;;;;;0.15;0.15;;;;;;;21.41;46.07;99540.81;7386941;19;20011;-81
2023/01/20 02:14:20;;;;;;;;;;;;;;;21.03;46.22;99538.47;7386115;19;20025;-80
2023/01/20 02:16:58;;;;;;;1.00;0.20;;;;;;;20.90;45.84;99535.72;7388146;19;19919;-80
2023/01/20 02:19:32;;;;;;;1.65;0.63;;;;;;;19.58;47.03;99548.84;7383427;19;20030;-80
2023/01/20 02:22:24;;;;;;;0.10;0.10;;;;;;;19.58;48.97;99551.66;7390780;19;20495;-81
2023/01/20 02:25:02;;;;;;;0.10;0.03;;;;;;;19.54;48.38;99554.06;7383670;19;20014;-81
2023/01/20 02:27:51;;;;;;;0.13;0.13;;;;;;;19.49;48.11;99563.41;7385016;19;20018;-80
2023/01/20 02:30:45;;;;;;;0.25;0.20;;;;;;;19.32;48.52;99565.78;7385235;19;20042;-81
2023/01/20 02:33:26;;;;;;;0.10;0.10;;;;;;;17.77;51.54;99576.75;7384960;19;20349;-81
2023/01/20 02:36:19;;;;;;;1.20;0.73;;;;;;;18.24;50.85;99579.16;7389377;19;20030;-81
2023/01/20 02:38:48;;;;;;;0.15;0.15;;;;;;;18.39;50.42;99579.44;7385498;19;20039;-81
2023/01/20 02:41:29;;;;;;;0.20;0.10;;;;;;;19.30;49.47;99576.84;7391806;19;20074;-81
2023/01/20 02:44:03;;;;;;;0.77;0.32;;;;;;;16.48;50.98;99572.91;7394498;19;20026;-80
2023/01/20 02:46:37;;;;;;;0.10;0.10;;;;;;;17.74;51.82;99572.16;7395293;19;20086;-81
2023/01/20 02:49:18;;;;;;;0.10;0.00;;;;;;;11.28;76.28;99586.09;7392719;19;20014;-81
2023/01/20 02:51:57;;;;;;;0.20;0.20;;;;;;;15.84;65.74;99582.00;7392714;19;20019;-80
2023/01/20 02:54:27;;;;;;;0.30;0.22;;;;;;;16.84;61.12;99582.09;7391874;19;20042;-80
2023/01/20 02:56:57;;;;;;;0.20;0.20;;;;;;;16.65;59.81;99586.88;7396133;19;20349;-80
2023/01/20 02:59:27;;;;;;;25.60;0.63;;;;;;;16.85;59.26;99589.22;7388090;19;20021;-80
2023/01/20 03:02:01;;;;;;;6.60;1.40;;;;;;;9.07;100.00;99601.63;7391814;19;20022;-80
2023/01/20 03:04:37;;;;;;;0.10;0.10;;;;;;;7.69;100.00;99611.97;7390101;19;20473;-80
2023/01/20 03:07:04;;;;;;;0.30;0.10;;;;;;;6.39;100.00;99623.59;7395834;19;20038;-81
2023/01/20 03:09:36;;;;;;;0.10;0.10;;;;;;;6.73;100.00;99620.69;7392649;19;20073;-80
2023/01/20 03:12:41;;;;;;;6.03;0.60;;;;;;;6.58;100.00;99619.72;7390736;19;20484;-80
2023/01/20 03:15:08;;;;;;;0.10;0.10;;;;;;;9.28;100.00;99614.47;7387622;19;20038;-80
2023/01/20 03:17:35;;;;;;;0.55;0.55;;;;;;;10.74;100.00;99614.72;7391545;19;20053;-81
2023/01/20 03:20:01;;;;;;;5.97;0.30;;;;;;;12.53;100.00;99611.63;7392799;19;20045;-80
2023/01/20 03:22:29;;;;;;;0.28;0.28;;;;;;;12.43;95.20;99615.09;7391722;19;20021;-81
2023/01/20 03:24:57;;;;;;;0.20;0.20;;;;;;;12.17;95.97;99613.06;7389228;19;20010;-81
2023/01/20 03:27:25;;;;;;;0.10;0.10;;;;;;;10.12;100.00;99622.47;7390747;19;20451;-81
2023/01/20 03:29:51;;;;;;;4.88;0.35;;;;;;;12.38;100.00;99618.59;7391261;19;20363;-81
2023/01/20 03:32:21;;;;;;;2.55;1.30;;;;;;;13.07;94.66;99620.97;7389643;19;20401;-80
2023/01/20 03:34:47;;;;;;;0.10;0.08;;;;;;;13.19;92.06;99622.53;7388019;19;20010;-81
2023/01/20 03:37:14;;;;;;;0.55;0.30;;;;;;;11.79;95.27;99616.19;7391576;19;20465;-81
2023/01/20 03:39:41;;;;;;;14.57;0.90;;;;;;;12.06;99.10;99617.78;7387878;19;20014;-81
2023/01/20 03:42:34;;;;;;;0.40;0.40;;;;;;;13.25;91.70;99617.00;7390107;19;20018;-81
2023/01/20 03:45:08;;;;;;;0.10;0.10;;;;;;;13.35;88.40;99619.09;7394229;19;20040;-81
2023/01/20 03:47:57;;;;;;;0.20;0.20;;;;;;;13.75;88.55;99622.84;7388947;19;20022;-81
2023/01/20 03:50:38;;;;;;;0.47;0.47;;;;;;;14.12;84.58;99629.81;7387426;19;20046;-80
2023/01/20 03:53:23;;;;;;;0.63;0.38;;;;;;;13.38;88.30;99629.28;7390800;19;20027;-81
2023/01/20 03:56:01;;;;;;;2.22;1.30;;;;;;;9.54;100.00;99634.97;7395241;19;20025;-80
2023/01/20 03:58:30;;;;;;;0.20;0.10;;;;;;;13.25;91.79;99623.38;7390145;19;20014;-81
2023/01/20 04:00:59;;;;;;;0.30;0.30;;;;;;;13.55;88.26;99632.94;7389418;19;20613;-80
2023/01/20 04:03:30;;;;;;;0.10;0.10;;;;;;;13.64;87.14;99632.72;7389438;19;20015;-81
2023/01/20 04:06:00;;;;;;;0.50;0.47;;;;;;;13.84;85.29;99642.22;7393177;19;20038;-80
2023/01/20 04:08:32;;;;;;;0.10;0.10;;;;;;;13.59;84.94;99643.88;7389446;19;20018;-80
2023/01/20 04:11:02;;;;;;;8.10;0.55;;;;;;;13.97;84.28;99642.53;7390409;19;20019;-80
2023/01/20 04:13:29;;;;;;;0.10;0.10;;;;;;;13.88;84.11;99653.94;7390791;19;20018;-81
2023/01/20 04:15:56;;;;;;;1.20;0.40;;;;;;;13.67;85.21;99651.31;7392267;19;20062;-81
2023/01/20 04:18:22;;;;;;;0.20;0.17;;;;;;;18.38;68.92;99642.78;7389271;19;20029;-80
2023/01/20 04:20:56;;;;;;;2.00;1.10;;;;;;;19.50;60.48;99649.69;7388584;19;20018;-81
2023/01/20 04:23:38;;;;;;;0.10;0.05;;;;;;;18.72;60.57;99652.28;7390770;19;20478;-80
2023/01/20 04:26:04;;;;;;;0.73;0.38;;;;;;;17.24;63.35;99670.47;7389989;19;20018;-80
2023/01/20 04:28:31;;;;;;;9.77;1.38;;;;;;;19.60;58.26;99670.53;7390101;19;20519;-80
2023/01/20 04:30:57;;;;;;;0.20;0.20;;;;;;;16.35;62.12;99690.78;7390102;19;20362;-80
2023/01/20 04:33:24;;;;;;;0.20;0.20;;;;;;;14.52;70.10;99686.75;7389912;19;20042;-80
2023/01/20 04:35:50;;;;;;;0.20;0.20;;;;;;;14.04;73.60;99679.19;7392225;19;20018;-81
2023/01/20 04:38:16;;;;;;;0.10;0.10;;;;;;;13.66;77.79;99683.34;7391024;19;20014;-80
2023/01/20 04:40:42;;;;;;;0.20;0.20;;;;;;;13.74;77.98;99689.25;7390997;19;20342;-81
2023/01/20 04:43:09;;;;;;;3.00;1.02;;;;;;;13.86;77.46;99687.28;7391115;19;20045;-80
2023/01/20 04:45:35;;;;;;;0.10;0.10;;;;;;;13.82;77.34;99689.56;7388815;19;20370;-81
2023/01/20 04:48:06;;;;;;;0.10;0.10;;;;;;;13.78;77.68;99686.19;7389495;19;20018;-81
2023/01/20 04:50:32;;;;;;;0.20;0.20;;;;;;;13.73;77.82;99682.09;7391325;19;20018;-80
2023/01/20 04:52:58;;;;;;;0.52;0.25;;;;;;;13.63;77.87;99686.38;7388741;19;20380;-80
2023/01/20 04:55:25;;;;;;;0.80;0.32;;;;;;;13.12;81.25;99692.16;7390969;19;20341;-81
2023/01/20 04:57:51;;;;;;;0.73;0.30;;;;;;;13.36;80.06;99693.34;7386350;19;20042;-81
2023/01/20 05:00:19;;;;;;;0.20;0.20;;;;;;;13.30;81.34;99689.75;7387365;19;20046;-81
2023/01/20 05:02:46;;;;;;;0.15;0.15;;;;;;;13.41;81.43;99701.00;7387638;19;20015;-81
2023/01/20 05:05:12;;;;;;;0.30;0.30;;;;;;;13.47;80.40;99703.84;7386929;19;20476;-81
2023/01/20 05:07:38;;;;;;;0.30;0.30;;;;;;;13.44;80.74;99702.03;7385595;19;20477;-80
2023/01/20 05:10:05;;;;;;;0.70;0.50;;;;;;;13.38;81.35;99706.84;7387745;19;20031;-80
2023/01/20 05:12:31;;;;;;;3.50;1.27;;;;;;;13.57;81.12;99708.75;7386166;19;20361;-80
2023/01/20 05:14:57;;;;;;;1.33;0.22;;;;;;;13.46;82.43;99707.91;7390779;19;20469;-80
2023/01/20 05:17:23;;;;;;;2.08;0.90;;;;;;;13.51;82.13;99705.13;7387804;19;20046;-80
2023/01/20 05:19:50;;;;;;;0.30;0.20;;;;;;;13.50;82.66;99703.63;7386272;19;20031;-80
2023/01/20 05:22:16;;;;;;;0.65;0.20;;;;;;;13.76;81.74;99708.31;7387263;19;20018;-80
2023/01/20 05:24:42;;;;;;;0.10;0.10;;;;;;;13.60;80.99;99716.13;7384562;19;20027;-79
2023/01/20 05:27:08;;;;;;;0.30;0.22;;;;;;;13.59;81.15;99714.63;7387419;19;20010;-80
2023/01/20 05:29:35;;;;;;;0.13;0.13;;;;;;;13.52;80.87;99717.09;7385891;19;20029;-80
2023/01/20 05:32:01;;;;;;;0.10;0.10;;;;;;;13.12;83.17;99718.09;7386656;19;20022;-80
2023/01/20 05:34:27;;;;;;;0.50;0.20;;;;;;;13.42;80.78;99713.75;7385804;19;20029;-80
2023/01/20 05:36:53;;;;;;;0.30;0.20;;;;;;;13.42;79.92;99719.34;7390500;19;20493;-80
2023/01/20 05:39:20;;;;;;;27.20;0.90;;;;;;;13.60;78.11;99727.31;7385960;19;20039;-80
2023/01/20 05:41:46;;;;;;;0.20;0.15;;;;;;;13.24;80.05;99730.88;7387813;19;20031;-80
2023/01/20 05:44:13;;;;;;;1.75;1.45;;;;;;;12.25;80.90;99741.84;7387719;19;20561;-80
2023/01/20 05:46:39;;;;;;;7.32;0.70;;;;;;;12.65;83.14;99735.41;7389246;19;20022;-80
2023/01/20 05:49:05;;;;;;;0.13;0.13;;;;;;;12.84;82.18;99742.22;7386868;19;20023;-80
2023/01/20 05:51:31;;;;;;;0.10;0.10;;;;;;;13.85;74.11;99739.69;7387660;19;20041;-80
2023/01/20 05:53:57;;;;;;;0.15;0.10;;;;;;;16.20;64.47;99732.50;7386368;19;20047;-80
2023/01/20 05:56:23;;;;;;;0.28;0.28;;;;;;;13.41;74.56;99745.75;7390261;19;20245;-80
2023/01/20 05:58:54;;;;;;;0.20;0.20;;;;;;;12.68;79.06;99745.59;7383888;19;20082;-80
2023/01/20 06:01:21;;;;;;;3.30;0.65;;;;;;;12.77;79.05;99743.41;7384792;19;20074;-80
2023/01/20 06:03:47;;;;;;;0.50;0.32;;;;;;;12.66;80.13;99742.53;7386679;19;20039;-80
2023/01/20 06:06:14;;;;;;;0.10;0.10;;;;;;;7.30;100.00;99761.19;7387921;19;20018;-80
2023/01/20 06:08:41;;;;;;;0.10;0.10;;;;;;;11.40;100.00;99757.09;7385843;19;20014;-80
2023/01/20 06:11:08;;;;;;;0.52;0.40;;;;;;;12.47;91.10;99763.66;7386429;19;20014;-79
2023/01/20 06:13:34;;;;;;;0.45;0.45;;;;;;;14.82;75.43;99753.06;7384955;19;20028;-79
2023/01/20 06:16:01;;;;;;;0.65;0.28;;;;;;;13.52;81.78;99756.25;7388692;19;20485;-79
2023/01/20 06:18:29;;;;;;;0.47;0.30;;;;;;;13.10;82.15;99761.78;7384866;19;20027;-80
2023/01/20 06:20:58;;;;;;;0.50;0.35;;;;;;;13.22;82.06;99761.38;7386730;19;20014;-80
2023/01/20 06:23:26;;;;;;;4.43;0.52;;;;;;;13.12;81.47;99762.84;7384995;19;20112;-80
2023/01/20 06:26:00;;;;;;;0.30;0.10;;;;;;;13.14;82.08;99765.13;7388487;19;20365;-79
2023/01/20 06:28:27;;;;;;;0.75;0.63;;;;;;;13.37;81.13;99764.81;7385382;19;20019;-80
2023/01/20 06:31:05;;;;;;;0.45;0.40;;;;;;;13.02;82.03;99769.03;7386761;19;20035;-80
2023/01/20 06:33:32;;;;;;;1.60;1.23;;;;;;;13.37;80.49;99770.41;7385040;19;20029;-79
2023/01/20 06:35:59;;;;;;;0.55;0.55;;;;;;;13.04;82.89;99767.28;7385916;19;20353;-79
2023/01/20 06:38:28;;;;;;;0.85;0.63;;;;;;;11.13;96.68;99788.09;7385710;19;20025;-79
2023/01/20 06:41:12;;;;;;;0.32;0.17;;;;;;;13.08;83.30;99790.22;7386930;19;20019;-80
2023/01/20 06:43:41;;;;;;;0.35;0.35;;;;;;;13.05;81.96;99796.81;7387346;19;20026;-79
2023/01/20 06:46:11;;;;;;;2.38;0.85;;;;;;;13.19;80.54;99789.59;7387188;19;20022;-80
2023/01/20 06:48:38;;;;;;;13.93;1.55;;;;;;;13.01;80.69;99796.25;7383959;19;20026;-80
2023/01/20 06:51:07;;;;;;;15.93;3.72;;;;;;;17.11;67.58;99802.59;7386104;19;20345;-79
2023/01/20 06:53:33;;;;;;;9.32;4.03;;;;;;;18.06;62.47;99795.66;7383818;19;21401;-77
2023/01/20 06:56:00;;;;;;;4.10;1.77;;;;;;;17.49;60.93;99795.91;7387246;19;20035;-78
2023/01/20 06:58:28;;;;;;;18.23;7.63;;;;;;;14.80;65.75;99811.69;7382529;19;20074;-78
2023/01/20 07:00:56;;;;;;;12.57;5.97;;;;;;;13.34;74.03;99821.72;7384913;19;20015;-78
2023/01/20 07:03:22;;;;;;;7.68;2.42;;;;;;;15.59;66.26;99824.56;7383092;19;20026;-78
2023/01/20 07:06:00;;;;;;;7.88;4.05;;;;;;;18.28;60.45;99808.00;7383792;19;20495;-78
2023/01/20 07:08:27;;;;;;;6.45;2.20;;;;;;;19.03;56.65;99818.06;7383122;19;20350;-78
2023/01/20 07:10:53;;;;;;;8.63;3.17;;;;;;;13.89;66.72;99834.63;7383174;19;20029;-78
2023/01/20 07:13:19;;;;;;;16.35;4.63;;;;;;;13.18;73.32;99841.94;7382998;19;20025;-78
2023/01/20 07:15:45;;;;;;;9.90;2.88;;;;;;;13.21;75.34;99837.41;7383185;19;20511;-78
2023/01/20 07:18:12;;;;;;;14.02;2.58;;;;;;;13.01;75.45;99838.19;7382373;19;20512;-78
2023/01/20 07:20:38;;;;;;;11.00;3.80;;;;;;;12.12;78.28;99851.06;7385219;19;20390;-78
2023/01/20 07:23:04;;;;;;;15.32;3.65;;;;;;;12.21;80.08;99857.75;7386815;19;20014;-78
2023/01/20 07:25:31;;;;;;;15.40;3.42;;;;;;;11.98;81.24;99851.84;7388075;19;20027;-78
2023/01/20 07:27:57;;;;;;;9.30;1.90;;;;;;;13.07;76.93;99855.81;7389855;19;20022;-78
2023/01/20 07:30:23;;;;;;;4.40;1.67;;;;;;;14.56;73.50;99853.38;7390043;19;20014;-78
2023/01/20 07:32:50;;;;;;;4.63;1.55;;;;;;;13.77;71.22;99858.22;7390521;19;20015;-78
2023/01/20 07:35:16;;;;;;;1.85;0.63;;;;;;;14.94;68.54;99852.75;7388106;19;20085;-78
2023/01/20 07:37:42;;;;;;;1.70;1.60;;;;;;;14.01;69.48;99869.84;7390346;19;20475;-78
2023/01/20 07:40:09;;;;;;;3.03;0.52;;;;;;;12.98;72.02;99866.34;7389392;19;20022;-78
2023/01/20 07:42:36;;;;;;;1.77;1.42;;;;;;;17.66;61.78;99858.53;7390994;19;20010;-79
2023/01/20 07:45:03;;;;;;;4.70;1.67;;;;;;;17.54;59.36;99868.38;7393333;19;20047;-78
2023/01/20 07:47:30;;;;;;;2.78;0.73;;;;;;;15.26;62.17;99875.00;7390203;19;20011;-78
2023/01/20 07:49:56;;;;;;;4.90;1.60;;;;;;;16.58;57.70;99886.25;7390466;19;20022;-78
2023/01/20 07:52:22;;;;;;;2.50;1.73;;;;;;;12.29;72.07;99892.38;7391044;19;20039;-78
2023/01/20 07:54:48;;;;;;;3.45;1.65;;;;;;;13.10;74.71;99893.19;7391056;19;20025;-78
2023/01/20 07:57:15;;;;;;;0.90;0.90;;;;;;;12.73;77.64;99904.16;7389464;19;20463;-78
2023/01/20 07:59:41;;;;;;;0.60;0.40;;;;;;;13.84;73.00;99894.16;7388110;19;20034;-78
2023/01/20 08:02:08;;;;;;;5.93;1.15;;;;;;;15.72;69.00;99895.75;7389050;19;20033;-78
2023/01/20 08:04:34;;;;;;;2.83;1.10;;;;;;;13.79;71.79;99894.88;7389399;19;20488;-79
2023/01/20 08:07:01;;;;;;;0.28;0.28;;;;;;;13.31;74.18;99901.06;7394354;19;20058;-79
2023/01/20 08:09:27;;;;;;;3.10;0.65;;;;;;;11.41;82.89;99915.56;7388551;19;20018;-78
2023/01/20 08:11:53;;;;;;;3.63;0.65;;;;;;;7.84;100.00;99940.03;7388963;19;20019;-78
2023/01/20 08:14:19;;;;;;;1.30;0.73;;;;;;;7.14;100.00;99938.69;7391255;19;20019;-78
2023/01/20 08:16:45;;;;;;;2.70;1.88;;;;;;;5.61;100.00;99949.56;7394076;19;20029;-78
2023/01/20 08:19:11;;;;;;;1.05;0.57;;;;;;;4.60;100.00;99951.97;7386058;19;20047;-78
2023/01/20 08:21:37;;;;;;;6.15;1.60;;;;;;;10.54;100.00;99949.53;7388182;19;20419;-78
2023/01/20 08:24:05;;;;;;;2.10;0.68;;;;;;;6.15;100.00;99951.53;7387479;19;20022;-78
2023/01/20 08:26:32;;;;;;;0.57;0.38;;;;;;;6.84;100.00;99964.25;7393431;19;20018;-78
2023/01/20 08:29:04;;;;;;;0.57;0.57;;;;;;;7.37;100.00;99967.91;7387808;19;20014;-78
2023/01/20 08:31:30;;;;;;;2.97;0.88;;;;;;;13.23;91.47;99953.06;7390046;19;20010;-78
2023/01/20 08:33:56;;;;;;;1.40;1.23;;;;;;;16.45;70.11;99953.47;7389914;19;20082;-78
2023/01/20 08:36:28;;;;;;;2.22;1.58;;;;;;;16.62;65.15;99961.88;7391368;19;20019;-78
2023/01/20 08:38:56;;;;;;;2.83;0.50;;;;;;;16.88;64.60;99958.75;7387094;19;20034;-78
2023/01/20 08:41:26;;;;;;;1.85;0.77;;;;;;;17.85;61.61;99977.72;7389572;19;20010;-78
2023/01/20 08:43:53;;;;;;;0.35;0.35;;;;;;;18.11;60.17;99983.69;7390512;19;20023;-78
2023/01/20 08:46:20;;;;;;;2.60;1.35;;;;;;;18.26;58.74;99988.19;7391915;19;20349;-78
2023/01/20 08:48:48;;;;;;;1.75;0.52;;;;;;;18.47;57.66;99992.13;7389824;19;20014;-78
2023/01/20 08:51:20;;;;;;;0.55;0.32;;;;;;;18.25;57.14;99986.66;7390357;19;20017;-78
2023/01/20 08:53:47;;;;;;;26.85;0.90;;;;;;;18.73;55.50;99992.38;7387633;19;20022;-79
2023/01/20 08:56:14;;;;;;;0.65;0.63;;;;;;;18.76;54.94;99997.72;7391211;19;20529;-77
2023/01/20 08:58:40;;;;;;;13.02;2.63;;;;;;;13.27;68.11;100015.19;7386413;19;20451;-78
2023/01/20 09:01:27;;;;;;;1.33;0.80;;;;;;;11.30;90.81;100020.53;7387682;19;20025;-78
2023/01/20 09:03:55;;;;;;;2.55;1.42;;;;;;;5.78;100.00;100041.47;7387356;19;20433;-78
2023/01/20 09:06:21;;;;;;;14.60;1.92;;;;;;;7.73;100.00;100042.22;7389512;19;20029;-79
2023/01/20 09:08:48;;;;;;;1.00;0.98;;;;;;;12.03;99.84;100038.19;7389847;19;20015;-78
2023/01/20 09:11:20;;;;;;;5.38;1.58;;;;;;;6.94;100.00;100046.16;7389774;19;20016;-78
2023/01/20 09:13:46;;;;;;;11.07;0.75;;;;;;;3.89;100.00;100056.78;7388950;19;20026;-78
2023/01/20 09:16:17;;;;;;;1.30;0.73;;;;;;;3.47;100.00;100057.63;7391079;19;20018;-78
2023/01/20 09:18:43;;;;;;;0.25;0.20;;;;;;;8.60;100.00;100049.19;7385596;19;20017;-78
2023/01/20 09:21:09;;;;;;;1.75;1.02;;;;;;;4.07;100.00;100051.66;7387547;19;20018;-79
2023/01/20 09:23:38;;;;;;;0.52;0.40;;;;;;;4.64;100.00;100056.69;7387089;19;20019;-79
2023/01/20 09:26:06;;;;;;;0.43;0.43;;;;;;;6.91;100.00;100051.81;7387932;19;20047;-79
2023/01/20 09:28:32;;;;;;;0.77;0.32;;;;;;;6.89;100.00;100044.72;7388255;19;20025;-79
2023/01/20 09:31:04;;;;;;;1.27;0.38;;;;;;;8.56;100.00;100045.78;7384442;19;20029;-79
2023/01/20 09:33:32;;;;;;;2.08;0.63;;;;;;;7.56;100.00;100042.41;7385952;19;20010;-78
2023/01/20 09:35:58;;;;;;;0.50;0.50;;;;;;;12.66;100.00;100041.50;7389075;19;20018;-79
2023/01/20 09:44:46;;;;;;;0.50;0.32;;;;;;;17.14;70.81;100060.47;7389655;19;20086;-79
2023/01/20 09:47:28;;;;;;;0.30;0.30;;;;;;;17.90;66.31;100067.09;7384207;19;20022;-79
2023/01/20 09:53:03;;;;;;;0.57;0.52;;;;;;;18.32;62.47;100070.66;7388058;19;19919;-79
2023/01/20 09:55:52;;;;;;;0.82;0.50;;;;;;;18.00;62.49;100067.53;7387900;19;20039;-79
2023/01/20 09:58:52;;;;;;;6.50;0.88;;;;;;;18.06;62.47;100071.84;7386243;19;20470;-79
2023/01/20 10:01:43;;;;;;;0.30;0.30;;;;;;;17.92;62.56;100067.34;7386205;19;20485;-79
2023/01/20 10:04:27;;;;;;;0.90;0.90;;;;;;;17.88;62.31;100083.75;7385807;19;20018;-79
2023/01/20 10:06:59;;;;;;;22.55;0.90;;;;;;;17.77;62.55;100081.00;7391012;19;20038;-79
2023/01/20 10:09:47;;;;;;;1.95;1.05;;;;;;;17.98;61.97;100087.00;7387452;19;20015;-79
2023/01/20 10:12:20;;;;;;;1.20;1.13;;;;;;;18.45;60.47;100091.34;7387196;19;20025;-79
2023/01/20 10:14:58;;;;;;;1.25;0.38;;;;;;;18.00;60.81;100090.09;7388960;19;20014;-80
2023/01/20 10:17:39;;;;;;;1.98;0.95;;;;;;;17.69;61.43;100096.91;7386059;19;20046;-80
2023/01/20 10:20:15;;;;;;;4.53;0.68;;;;;;;13.62;75.47;100108.16;7385911;19;20034;-80
2023/01/20 10:22:54;;;;;;;0.20;0.20;;;;;;;17.89;63.68;100110.63;7386257;19;20038;-80
2023/01/20 10:25:40;;;;;;;2.38;1.10;;;;;;;14.90;68.74;100115.81;7384473;19;20018;-80
2023/01/20 10:28:39;;;;;;;1.23;0.68;;;;;;;17.21;64.14;100117.00;7384472;19;20022;-80
2023/01/20 10:31:05;;;;;;;0.10;0.10;;;;;;;17.36;63.14;100113.91;7385372;19;20026;-80
2023/01/20 10:33:34;;;;;;;0.10;0.10;;;;;;;16.53;64.74;100119.59;7385343;19;20015;-80
2023/01/20 10:36:00;;;;;;;0.30;0.20;;;;;;;17.32;63.73;100121.84;7388474;19;20509;-79
2023/01/20 10:38:57;;;;;;;7.22;0.55;;;;;;;17.78;61.24;100124.78;7384980;19;20023;-78
2023/01/20 10:41:29;;;;;;;0.32;0.32;;;;;;;17.46;60.69;100123.59;7383878;19;20018;-79
2023/01/20 10:43:57;;;;;;;0.30;0.30;;;;;;;17.87;60.37;100126.53;7385566;19;20021;-79
2023/01/20 10:46:40;;;;;;;0.40;0.40;;;;;;;17.88;60.32;100123.22;7386718;19;20412;-79
2023/01/20 10:49:36;;;;;;;0.63;0.63;;;;;;;17.25;62.28;100128.75;7384198;19;20425;-79
2023/01/20 10:52:08;;;;;;;3.92;0.73;;;;;;;17.87;60.78;100135.75;7385916;19;20024;-78
2023/01/20 10:54:56;;;;;;;0.40;0.28;;;;;;;17.74;60.57;100134.78;7383929;19;20485;-79
2023/01/20 10:57:22;;;;;;;0.13;0.13;;;;;;;17.56;60.60;100130.50;7383474;19;20039;-79
2023/01/20 10:59:54;;;;;;;1.63;0.75;;;;;;;17.53;60.18;100131.53;7384568;19;20014;-79
2023/01/20 11:02:26;;;;;;;3.40;0.77;;;;;;;17.53;60.35;100134.34;7393400;19;20085;-79
2023/01/20 11:05:01;;;;;;;9.63;0.85;;;;;;;17.70;59.58;100135.06;7390398;19;20019;-79
2023/01/20 11:07:31;;;;;;;0.22;0.22;;;;;;;16.04;61.12;100151.94;7392109;19;20464;-78
2023/01/20 11:09:59;;;;;;;2.40;0.63;;;;;;;13.50;73.32;100145.69;7393021;19;20055;-79
2023/01/20 11:12:30;;;;;;;0.15;0.15;;;;;;;12.54;81.07;100154.34;7392389;19;20019;-78
2023/01/20 11:14:59;;;;;;;0.47;0.28;;;;;;;16.56;69.93;100147.47;7394117;19;20029;-78
2023/01/20 11:17:25;;;;;;;7.38;0.75;;;;;;;18.00;63.11;100150.03;7389571;19;20010;-79
2023/01/20 11:19:57;;;;;;;1.15;0.35;;;;;;;13.80;72.63;100162.31;7388000;19;20018;-78
2023/01/20 11:22:28;;;;;;;2.05;1.48;;;;;;;18.19;62.29;100159.41;7392745;19;20052;-79
2023/01/20 11:24:58;;;;;;;4.53;0.80;;;;;;;18.78;59.76;100153.16;7388460;19;20413;-78
2023/01/20 11:27:33;;;;;;;3.03;1.55;;;;;;;17.72;59.03;100160.66;7390131;19;20011;-79
2023/01/20 11:30:04;;;;;;;1.67;0.40;;;;;;;17.79;62.71;100160.13;7391299;19;20051;-79
2023/01/20 11:32:33;;;;;;;0.20;0.20;;;;;;;19.06;58.43;100150.09;7389381;19;20015;-78
2023/01/20 11:35:01;;;;;;;0.60;0.60;;;;;;;18.51;57.78;100145.69;7384851;19;20095;-78
2023/01/20 11:37:38;;;;;;;0.30;0.10;;;;;;;18.29;58.52;100142.97;7387800;19;20014;-77
2023/01/20 11:40:27;;;;;;;0.10;0.10;;;;;;;14.59;65.50;100149.47;7386353;19;20026;-80
2023/01/20 11:42:54;;;;;;;0.20;0.20;;;;;;;14.12;70.34;100150.75;7391627;19;20015;-79
2023/01/20 11:45:33;;;;;;;0.90;0.22;;;;;;;14.46;68.92;100168.72;7394162;19;20521;-78
2023/01/20 11:47:59;;;;;;;0.52;0.50;;;;;;;15.01;69.95;100157.19;7391223;19;20014;-78
2023/01/20 11:50:35;;;;;;;0.10;0.10;;;;;;;15.52;68.78;100156.28;7389309;19;20018;-78
2023/01/20 11:53:16;;;;;;;0.85;0.15;;;;;;;15.54;67.95;100159.38;7390605;19;20042;-78
2023/01/20 11:55:45;;;;;;;;;;;;;;;15.12;68.60;100160.09;7396519;19;20536;-78